Time;durP1;ratioP1;P1;durP2;ratioP2;P2;SDS_P1;SDS_P2;PMS_P1;PMS_P2;Temp;Humidity;BMP_temperature;BMP_pressure;BME280_temperature;BME280_humidity;BME280_pressure;Samples;Min_cycle;Max_cycle;Signal;HPM_P1;HPM_P2
2022/11/19 00:01:02;;;;;;;11.70;8.75;;;1.40;99.90;;;;;;7370670;19;20019;-47
2022/11/19 00:03:31;;;;;;;13.77;11.25;;;1.40;99.90;;;;;;7372508;19;20343;-47
2022/11/19 00:06:05;;;;;;;8.57;6.53;;;1.50;99.90;;;;;;7371367;19;20018;-48
2022/11/19 00:08:32;;;;;;;11.95;8.43;;;1.50;99.90;;;;;;7370414;19;20030;-45
2022/11/19 00:11:10;;;;;;;10.70;8.38;;;1.40;99.90;;;;;;7371269;19;20018;-47
2022/11/19 00:13:41;;;;;;;10.85;8.90;;;1.40;99.90;;;;;;7369450;19;20026;-46
2022/11/19 00:16:11;;;;;;;11.68;9.05;;;1.50;99.90;;;;;;7371632;19;20383;-49
2022/11/19 00:18:38;;;;;;;12.05;9.50;;;1.50;99.90;;;;;;7372148;19;20470;-50
2022/11/19 00:21:10;;;;;;;10.38;7.47;;;1.50;99.90;;;;;;7371176;19;20014;-50
2022/11/19 00:23:38;;;;;;;9.40;7.63;;;1.50;99.90;;;;;;7369198;19;20044;-45
2022/11/19 00:26:13;;;;;;;11.60;8.32;;;1.50;99.90;;;;;;7367288;19;20435;-45
2022/11/19 00:28:40;;;;;;;10.23;8.00;;;1.40;99.90;;;;;;7373016;19;20053;-48
2022/11/19 00:31:10;;;;;;;11.90;8.65;;;1.40;99.90;;;;;;7368464;19;20026;-47
2022/11/19 00:33:37;;;;;;;9.25;7.40;;;1.40;99.90;;;;;;7368627;19;20579;-45
2022/11/19 00:36:06;;;;;;;8.98;7.18;;;1.40;99.90;;;;;;7369248;19;20015;-48
2022/11/19 00:38:33;;;;;;;11.02;7.60;;;1.40;99.90;;;;;;7371849;19;20023;-48
2022/11/19 00:41:00;;;;;;;9.38;6.78;;;1.40;99.90;;;;;;7374261;19;20015;-47
2022/11/19 00:46:24;;;;;;;9.25;6.63;;;1.40;99.90;;;;;;7385274;19;20015;-46
2022/11/19 00:48:53;;;;;;;10.50;6.90;;;1.40;99.90;;;;;;7375363;19;20035;-48
2022/11/19 00:51:21;;;;;;;8.88;6.40;;;1.40;99.90;;;;;;7378045;19;20082;-48
2022/11/19 00:53:48;;;;;;;7.25;5.38;;;1.40;99.90;;;;;;7377562;19;20026;-51
2022/11/19 00:56:17;;;;;;;8.38;5.55;;;1.40;99.90;;;;;;7375402;19;20018;-46
2022/11/19 00:58:45;;;;;;;7.90;5.65;;;1.40;99.90;;;;;;7374373;19;20018;-45
2022/11/19 01:01:13;;;;;;;8.23;5.75;;;1.40;99.90;;;;;;7381626;19;20022;-49
2022/11/19 01:03:41;;;;;;;10.48;5.45;;;1.40;99.90;;;;;;7377144;19;20019;-48
2022/11/19 01:06:08;;;;;;;6.13;3.95;;;1.30;99.90;;;;;;7379434;19;20010;-46
2022/11/19 01:08:35;;;;;;;8.35;5.70;;;1.30;99.90;;;;;;7378766;19;20501;-47
2022/11/19 01:11:14;;;;;;;6.88;4.85;;;1.30;99.90;;;;;;7377542;19;20019;-46
2022/11/19 01:13:41;;;;;;;7.70;4.47;;;1.30;99.90;;;;;;7374943;19;20466;-45
2022/11/19 01:16:10;;;;;;;5.13;3.35;;;1.30;99.90;;;;;;7375559;19;20026;-46
2022/11/19 01:18:39;;;;;;;7.68;5.57;;;1.30;99.90;;;;;;7372933;19;20070;-46
2022/11/19 01:21:09;;;;;;;7.20;5.05;;;1.30;99.90;;;;;;7376109;19;20018;-47
2022/11/19 01:23:37;;;;;;;7.90;5.13;;;1.30;99.90;;;;;;7373313;19;20522;-50
2022/11/19 01:26:03;;;;;;;5.88;4.40;;;1.20;99.90;;;;;;7375754;19;20475;-48
2022/11/19 01:28:30;;;;;;;7.43;5.00;;;1.20;99.90;;;;;;7376558;19;20014;-45
2022/11/19 01:30:56;;;;;;;5.93;4.32;;;1.30;99.90;;;;;;7376919;19;20367;-53
2022/11/19 01:33:23;;;;;;;6.13;4.07;;;1.20;99.90;;;;;;7388052;19;20490;-53
2022/11/19 01:36:02;;;;;;;6.32;4.28;;;1.10;99.90;;;;;;7387156;19;20465;-53
2022/11/19 01:38:29;;;;;;;7.63;4.95;;;1.10;99.90;;;;;;7386464;19;20014;-53
2022/11/19 01:40:56;;;;;;;5.93;4.40;;;1.00;99.90;;;;;;7380663;19;20359;-49
2022/11/19 01:43:43;;;;;;;7.50;4.80;;;1.00;99.90;;;;;;7373632;19;20022;-50
2022/11/19 01:46:13;;;;;;;8.20;5.03;;;0.90;99.90;;;;;;7376562;19;20022;-51
2022/11/19 01:48:50;;;;;;;7.35;5.00;;;0.90;99.90;;;;;;7376868;19;20017;-54
2022/11/19 01:51:28;;;;;;;5.43;3.65;;;0.90;99.90;;;;;;7384086;19;20018;-53
2022/11/19 01:54:00;;;;;;;6.97;4.65;;;0.80;99.90;;;;;;7385103;19;20446;-49
2022/11/19 01:56:28;;;;;;;6.72;4.88;;;0.80;99.90;;;;;;7379608;19;20470;-47
2022/11/19 01:59:01;;;;;;;7.07;4.93;;;0.80;99.90;;;;;;7377310;19;20142;-48
2022/11/19 02:01:30;;;;;;;6.25;4.25;;;0.80;99.90;;;;;;7373022;19;20057;-52
2022/11/19 02:04:01;;;;;;;5.40;4.05;;;0.70;99.90;;;;;;7388692;19;20018;-54
2022/11/19 02:06:29;;;;;;;7.65;5.55;;;0.70;99.90;;;;;;7388586;19;20040;-53
2022/11/19 02:08:56;;;;;;;5.97;3.72;;;0.70;99.90;;;;;;7382249;19;20112;-48
2022/11/19 02:11:28;;;;;;;7.30;5.07;;;0.70;99.90;;;;;;7380450;19;20032;-53
2022/11/19 02:14:27;;;;;;;6.45;3.83;;;0.60;99.90;;;;;;7387434;19;20019;-53
2022/11/19 02:17:20;;;;;;;6.10;4.15;;;0.60;99.90;;;;;;7387082;19;20018;-53
2022/11/19 02:20:08;;;;;;;7.13;4.85;;;0.60;99.90;;;;;;7385788;19;20090;-54
2022/11/19 02:22:44;;;;;;;5.30;4.00;;;0.50;99.90;;;;;;7385256;19;20074;-52
2022/11/19 02:25:15;;;;;;;7.35;5.38;;;0.50;99.90;;;;;;7387235;19;20486;-53
2022/11/19 02:28:12;;;;;;;6.10;4.40;;;0.50;99.90;;;;;;7377679;19;20015;-47
2022/11/19 02:30:47;;;;;;;6.85;4.90;;;0.40;99.90;;;;;;7373210;19;20022;-50
2022/11/19 02:33:34;;;;;;;6.63;4.55;;;0.40;99.90;;;;;;7373352;19;20636;-51
2022/11/19 02:36:18;;;;;;;4.53;3.47;;;0.30;99.90;;;;;;7371854;19;20018;-49
2022/11/19 02:39:07;;;;;;;7.70;5.15;;;0.30;99.90;;;;;;7382400;19;20021;-52
2022/11/19 02:41:38;;;;;;;11.07;5.25;;;0.30;99.90;;;;;;7382028;19;20034;-49
2022/11/19 02:47:33;;;;;;;6.40;4.43;;;0.20;99.90;;;;;;7382464;19;20035;-52
2022/11/19 02:50:15;;;;;;;6.68;5.10;;;0.10;99.90;;;;;;7383965;19;20014;-51
2022/11/19 02:52:44;;;;;;;6.47;4.30;;;0.20;99.90;;;;;;7383135;19;20018;-51
2022/11/19 02:55:16;;;;;;;7.97;5.22;;;0.10;99.90;;;;;;7383997;19;20137;-53
2022/11/19 02:57:50;;;;;;;7.00;4.90;;;0.10;99.90;;;;;;7384563;19;20042;-52
2022/11/19 03:06:15;;;;;;;6.78;4.55;;;0.10;99.90;;;;;;7386505;19;20026;-50
2022/11/19 03:08:42;;;;;;;5.65;4.15;;;0.10;99.90;;;;;;7385094;19;20509;-50
2022/11/19 03:11:08;;;;;;;6.35;4.28;;;0.00;99.90;;;;;;7386087;19;20509;-53
2022/11/19 03:16:50;;;;;;;7.28;4.90;;;0.00;99.90;;;;;;7382944;19;20067;-51
2022/11/19 03:19:49;;;;;;;5.68;3.60;;;0.00;99.90;;;;;;7382639;19;20026;-52
2022/11/19 03:22:27;;;;;;;6.68;4.28;;;0.00;99.90;;;;;;7381708;19;20026;-53
2022/11/19 03:25:19;;;;;;;7.13;4.68;;;0.00;99.90;;;;;;7384286;19;20015;-50
2022/11/19 03:27:48;;;;;;;7.10;4.53;;;0.00;99.90;;;;;;7382386;19;20014;-51
2022/11/19 03:30:16;;;;;;;7.05;4.57;;;0.00;99.90;;;;;;7385660;19;20363;-52
2022/11/19 03:33:01;;;;;;;5.80;4.32;;;0.00;99.90;;;;;;7380395;19;20018;-52
2022/11/19 03:35:50;;;;;;;6.15;4.47;;;-0.10;99.90;;;;;;7386047;19;20018;-52
2022/11/19 03:38:23;;;;;;;3.90;2.13;;;-0.10;99.90;;;;;;7378162;19;20025;-51
2022/11/19 03:40:53;;;;;;;5.80;4.55;;;-0.20;99.90;;;;;;7377494;19;20359;-52
2022/11/19 03:43:21;;;;;;;6.55;4.57;;;-0.20;99.90;;;;;;7375934;19;20037;-52
2022/11/19 03:45:52;;;;;;;5.65;3.55;;;-0.20;99.90;;;;;;7383525;19;20022;-51
2022/11/19 03:48:22;;;;;;;6.32;3.88;;;-0.30;99.90;;;;;;7385144;19;20024;-51
2022/11/19 03:51:06;;;;;;;6.22;4.53;;;-0.30;99.90;;;;;;7382299;19;20505;-52
2022/11/19 03:53:32;;;;;;;5.80;3.88;;;-0.30;99.90;;;;;;7381349;19;20014;-52
2022/11/19 03:56:05;;;;;;;5.35;3.95;;;-0.30;99.90;;;;;;7381026;19;20027;-52
2022/11/19 03:58:41;;;;;;;6.40;4.15;;;-0.30;99.90;;;;;;7383265;19;20014;-53
2022/11/19 04:01:08;;;;;;;7.15;4.47;;;-0.30;99.90;;;;;;7382443;19;20052;-48
2022/11/19 04:03:38;;;;;;;6.63;4.50;;;-0.40;99.90;;;;;;7369739;19;20502;-47
2022/11/19 04:06:05;;;;;;;5.78;4.00;;;-0.40;99.90;;;;;;7366319;19;20019;-46
2022/11/19 04:08:31;;;;;;;7.13;4.93;;;-0.40;99.90;;;;;;7378620;19;20474;-52
2022/11/19 04:10:58;;;;;;;6.35;4.40;;;-0.40;99.90;;;;;;7374515;19;20466;-51
2022/11/19 04:13:24;;;;;;;5.65;4.03;;;-0.40;99.90;;;;;;7378010;19;20144;-48
2022/11/19 04:15:51;;;;;;;4.90;3.90;;;-0.40;99.90;;;;;;7378906;19;20357;-52
2022/11/19 04:18:17;;;;;;;6.47;4.50;;;-0.50;99.90;;;;;;7390010;19;20024;-52
2022/11/19 04:20:45;;;;;;;5.97;3.88;;;-0.50;99.90;;;;;;7392228;19;20482;-52
2022/11/19 04:23:11;;;;;;;8.65;4.38;;;-0.50;99.90;;;;;;7390552;19;20011;-52
2022/11/19 04:25:40;;;;;;;7.28;4.25;;;-0.50;99.90;;;;;;7390500;19;20391;-52
2022/11/19 04:28:06;;;;;;;7.70;4.78;;;-0.60;99.90;;;;;;7394150;19;20038;-50
2022/11/19 04:30:32;;;;;;;6.50;3.97;;;-0.50;99.90;;;;;;7392924;19;20090;-51
2022/11/19 04:32:59;;;;;;;6.35;4.20;;;-0.60;99.90;;;;;;7387157;19;20021;-50
2022/11/19 04:35:25;;;;;;;7.10;4.70;;;-0.70;99.90;;;;;;7388746;19;20027;-50
2022/11/19 04:37:51;;;;;;;6.03;4.00;;;-0.60;99.90;;;;;;7392679;19;20432;-49
2022/11/19 04:40:17;;;;;;;6.20;4.10;;;-0.70;99.90;;;;;;7391743;19;20023;-52
2022/11/19 04:42:43;;;;;;;6.07;4.35;;;-0.70;99.90;;;;;;7388311;19;20861;-51
2022/11/19 04:45:10;;;;;;;8.98;5.40;;;-0.70;99.90;;;;;;7391363;19;20011;-51
2022/11/19 04:47:36;;;;;;;6.78;4.20;;;-0.70;99.90;;;;;;7389162;19;20042;-51
2022/11/19 04:50:03;;;;;;;6.15;4.28;;;-0.80;99.90;;;;;;7390636;19;20014;-52
2022/11/19 04:52:31;;;;;;;7.38;4.28;;;-0.80;99.90;;;;;;7389245;19;20018;-50
2022/11/19 04:54:57;;;;;;;7.97;5.22;;;-0.80;99.90;;;;;;7392627;19;20031;-51
2022/11/19 04:57:24;;;;;;;6.68;4.20;;;-0.80;99.90;;;;;;7392322;19;20022;-52
2022/11/19 04:59:50;;;;;;;6.60;4.50;;;-0.80;99.90;;;;;;7387078;19;20018;-51
2022/11/19 05:02:17;;;;;;;7.25;5.28;;;-0.80;99.90;;;;;;7387337;19;20011;-50
2022/11/19 05:04:43;;;;;;;6.40;4.47;;;-0.90;99.90;;;;;;7389013;19;20469;-48
2022/11/19 05:07:09;;;;;;;6.90;4.75;;;-0.80;99.90;;;;;;7391689;19;20021;-51
2022/11/19 05:09:35;;;;;;;6.50;4.80;;;-0.90;99.90;;;;;;7391355;19;20022;-51
2022/11/19 05:12:02;;;;;;;7.55;5.53;;;-0.90;99.90;;;;;;7389421;19;20035;-52
2022/11/19 05:14:29;;;;;;;7.20;4.85;;;-1.00;99.90;;;;;;7391236;19;20011;-53
2022/11/19 05:16:56;;;;;;;7.07;5.07;;;-1.00;99.90;;;;;;7392017;19;20031;-51
2022/11/19 05:19:22;;;;;;;7.28;4.82;;;-1.00;99.90;;;;;;7377595;19;20026;-51
2022/11/19 05:21:48;;;;;;;7.90;5.10;;;-1.00;99.90;;;;;;7373107;19;20018;-50
2022/11/19 05:24:14;;;;;;;6.70;4.75;;;-1.00;99.90;;;;;;7376784;19;20070;-48
2022/11/19 05:26:41;;;;;;;7.20;4.97;;;-1.00;99.90;;;;;;7376404;19;20465;-53
2022/11/19 05:29:10;;;;;;;6.57;5.03;;;-1.00;99.90;;;;;;7391364;19;20026;-52
2022/11/19 05:31:36;;;;;;;6.78;4.38;;;-1.10;99.90;;;;;;7389150;19;20078;-52
2022/11/19 05:34:03;;;;;;;7.32;4.82;;;-1.10;99.90;;;;;;7388326;19;20552;-50
2022/11/19 05:36:29;;;;;;;7.05;5.00;;;-1.10;99.90;;;;;;7376160;19;20026;-50
2022/11/19 05:38:55;;;;;;;7.55;4.80;;;-1.10;99.90;;;;;;7376941;19;20026;-50
2022/11/19 05:41:22;;;;;;;10.32;6.57;;;-1.10;99.90;;;;;;7387655;19;20104;-53
2022/11/19 05:43:48;;;;;;;7.82;5.88;;;-1.10;99.90;;;;;;7393904;19;20475;-50
2022/11/19 05:46:15;;;;;;;7.93;4.90;;;-1.20;99.90;;;;;;7389165;19;20018;-48
2022/11/19 05:48:41;;;;;;;6.97;4.47;;;-1.20;99.90;;;;;;7391344;19;20022;-52
2022/11/19 05:51:13;;;;;;;9.32;6.35;;;-1.10;99.90;;;;;;7390530;19;20022;-53
2022/11/19 05:53:41;;;;;;;8.73;5.78;;;-1.20;99.90;;;;;;7388820;19;20045;-48
2022/11/19 05:56:07;;;;;;;7.70;5.38;;;-1.10;99.90;;;;;;7391979;19;20014;-52
2022/11/19 05:58:33;;;;;;;9.25;5.60;;;-1.20;99.90;;;;;;7391767;19;20018;-52
2022/11/19 06:01:00;;;;;;;9.45;6.38;;;-1.20;99.90;;;;;;7389652;19;20509;-52
2022/11/19 06:03:26;;;;;;;9.77;6.03;;;-1.20;99.90;;;;;;7391794;19;20028;-52
2022/11/19 06:05:52;;;;;;;8.93;6.05;;;-1.20;99.90;;;;;;7392221;19;20026;-52
2022/11/19 06:08:19;;;;;;;9.63;6.18;;;-1.20;99.90;;;;;;7391725;19;20019;-48
2022/11/19 06:10:45;;;;;;;9.02;6.72;;;-1.20;99.90;;;;;;7382185;19;20484;-51
2022/11/19 06:13:11;;;;;;;9.52;6.72;;;-1.30;99.90;;;;;;7370827;19;20050;-50
2022/11/19 06:15:37;;;;;;;8.45;6.25;;;-1.30;99.90;;;;;;7371412;19;20363;-51
2022/11/19 06:18:03;;;;;;;8.07;5.93;;;-1.30;99.90;;;;;;7386724;19;20022;-53
2022/11/19 06:20:30;;;;;;;10.25;6.97;;;-1.30;99.90;;;;;;7392681;19;20036;-52
2022/11/19 06:22:56;;;;;;;10.13;7.53;;;-1.20;99.90;;;;;;7392728;19;20378;-52
2022/11/19 06:25:23;;;;;;;9.38;7.43;;;-1.20;99.90;;;;;;7391802;19;20014;-53
2022/11/19 06:27:50;;;;;;;10.45;7.50;;;-1.30;99.90;;;;;;7389100;19;20015;-52
2022/11/19 06:30:16;;;;;;;11.25;7.72;;;-1.30;99.90;;;;;;7393098;19;20010;-48
2022/11/19 06:32:43;;;;;;;9.98;8.05;;;-1.30;99.90;;;;;;7389103;19;20022;-51
2022/11/19 06:35:09;;;;;;;11.48;6.72;;;-1.30;99.90;;;;;;7389821;19;20033;-53
2022/11/19 06:37:36;;;;;;;12.15;7.13;;;-1.40;99.90;;;;;;7386845;19;20082;-52
2022/11/19 06:40:02;;;;;;;11.15;7.50;;;-1.40;99.90;;;;;;7386088;19;20522;-52
2022/11/19 06:42:35;;;;;;;11.18;8.50;;;-1.40;99.90;;;;;;7391534;19;20018;-53
2022/11/19 06:45:10;;;;;;;12.02;8.57;;;-1.40;99.90;;;;;;7389789;19;20050;-53
2022/11/19 06:47:37;;;;;;;10.32;7.75;;;-1.40;99.90;;;;;;7388181;19;20066;-52
2022/11/19 06:50:08;;;;;;;10.60;7.50;;;-1.40;99.90;;;;;;7391963;19;20015;-51
2022/11/19 06:52:35;;;;;;;10.88;8.30;;;-1.40;99.90;;;;;;7388899;19;20019;-53
2022/11/19 06:55:01;;;;;;;11.90;8.63;;;-1.40;99.90;;;;;;7388789;19;20375;-52
2022/11/19 06:57:27;;;;;;;7.32;5.95;;;-1.40;99.90;;;;;;7385999;19;20022;-50
2022/11/19 06:59:54;;;;;;;10.30;6.78;;;-1.40;99.90;;;;;;7383199;19;20022;-53
2022/11/19 07:02:20;;;;;;;12.40;9.05;;;-1.40;99.90;;;;;;7389733;19;20021;-53
2022/11/19 07:04:46;;;;;;;10.48;7.47;;;-1.40;99.90;;;;;;7387241;19;20482;-53
2022/11/19 07:07:13;;;;;;;10.38;8.35;;;-1.40;99.90;;;;;;7390260;19;20038;-53
2022/11/19 07:09:39;;;;;;;12.63;8.40;;;-1.40;99.90;;;;;;7389859;19;20376;-54
2022/11/19 07:12:07;;;;;;;10.20;7.60;;;-1.40;99.90;;;;;;7386951;19;20014;-54
2022/11/19 07:14:34;;;;;;;12.15;8.60;;;-1.40;99.90;;;;;;7389068;19;20014;-54
2022/11/19 07:17:01;;;;;;;10.95;8.38;;;-1.40;99.90;;;;;;7387388;19;20014;-51
2022/11/19 07:19:27;;;;;;;13.25;7.90;;;-1.40;99.90;;;;;;7385820;19;20495;-53
2022/11/19 07:21:54;;;;;;;11.55;8.32;;;-1.40;99.90;;;;;;7389631;19;20014;-52
2022/11/19 07:24:20;;;;;;;11.57;7.70;;;-1.40;99.90;;;;;;7385228;19;20015;-52
2022/11/19 07:26:47;;;;;;;7.65;6.10;;;-1.40;99.90;;;;;;7387130;19;20107;-53
2022/11/19 07:29:14;;;;;;;14.02;9.05;;;-1.40;99.90;;;;;;7386501;19;20021;-54
2022/11/19 07:31:41;;;;;;;11.15;8.30;;;-1.40;99.90;;;;;;7385408;19;20019;-50
2022/11/19 07:34:09;;;;;;;11.80;8.48;;;-1.40;99.90;;;;;;7386100;19;20051;-53
2022/11/19 07:36:36;;;;;;;10.85;8.80;;;-1.30;99.90;;;;;;7383999;19;20014;-53
2022/11/19 07:39:04;;;;;;;16.58;11.07;;;-1.30;99.90;;;;;;7384054;19;20019;-53
2022/11/19 07:44:15;;;;;;;11.20;9.05;;;-1.30;99.90;;;;;;7382074;19;20014;-53
2022/11/19 07:46:42;;;;;;;11.05;8.52;;;-1.30;99.90;;;;;;7386119;19;20015;-54
2022/11/19 07:49:08;;;;;;;12.63;8.93;;;-1.30;99.90;;;;;;7386408;19;20105;-52
2022/11/19 07:51:35;;;;;;;11.80;8.60;;;-1.30;99.90;;;;;;7383240;19;20015;-51
2022/11/19 07:54:01;;;;;;;18.02;12.00;;;-1.20;99.90;;;;;;7386028;19;20025;-53
2022/11/19 07:56:28;;;;;;;13.48;9.88;;;-1.10;99.90;;;;;;7382692;19;20026;-53
2022/11/19 07:58:54;;;;;;;12.57;9.15;;;-1.00;99.90;;;;;;7386010;19;20415;-53
2022/11/19 08:01:25;;;;;;;11.82;9.23;;;-1.00;99.90;;;;;;7384852;19;20039;-53
2022/11/19 08:03:54;;;;;;;12.02;8.63;;;-1.00;99.90;;;;;;7386155;19;20015;-52
2022/11/19 08:06:22;;;;;;;12.88;9.73;;;-1.00;99.90;;;;;;7383784;19;20018;-53
2022/11/19 08:08:48;;;;;;;8.30;5.63;;;-1.00;99.90;;;;;;7381320;19;20018;-53
2022/11/19 08:11:16;;;;;;;12.25;8.52;;;-1.00;99.90;;;;;;7382383;19;20113;-53
2022/11/19 08:13:42;;;;;;;11.75;8.40;;;-1.00;99.90;;;;;;7383173;19;20007;-50
2022/11/19 08:16:11;;;;;;;17.73;12.00;;;-1.00;99.90;;;;;;7382551;19;20018;-49
2022/11/19 08:18:38;;;;;;;14.95;9.82;;;-1.00;99.90;;;;;;7381895;19;20039;-53
2022/11/19 08:21:09;;;;;;;11.95;8.73;;;-1.00;99.90;;;;;;7380478;19;20014;-54
2022/11/19 08:23:37;;;;;;;7.18;5.65;;;-0.80;99.90;;;;;;7382746;19;20022;-54
2022/11/19 08:26:06;;;;;;;10.77;8.63;;;-0.20;99.90;;;;;;7385338;19;20030;-55
2022/11/19 08:28:33;;;;;;;11.63;8.10;;;0.30;99.90;;;;;;7384611;19;20018;-55
2022/11/19 08:31:08;;;;;;;16.50;11.60;;;0.40;99.90;;;;;;7379206;19;20029;-50
2022/11/19 08:33:35;;;;;;;12.05;9.05;;;0.70;99.90;;;;;;7378013;19;20018;-51
2022/11/19 08:36:05;;;;;;;9.98;6.72;;;0.80;99.90;;;;;;7377177;19;20043;-50
2022/11/19 08:38:31;;;;;;;11.10;8.18;;;0.60;99.90;;;;;;7376979;19;20504;-49
2022/11/19 08:43:42;;;;;;;9.57;7.13;;;0.40;99.90;;;;;;7368993;19;20025;-50
2022/11/19 08:46:09;;;;;;;10.57;8.60;;;0.40;99.90;;;;;;7368336;19;20082;-51
2022/11/19 08:48:35;;;;;;;10.07;7.72;;;0.50;99.90;;;;;;7370198;19;20025;-51
2022/11/19 08:51:06;;;;;;;9.70;7.85;;;0.90;99.90;;;;;;7367358;19;20395;-49
2022/11/19 08:53:33;;;;;;;12.13;9.13;;;0.90;99.90;;;;;;7365025;19;20018;-49
2022/11/19 08:55:59;;;;;;;12.43;9.55;;;0.90;99.90;;;;;;7365800;19;20018;-51
2022/11/19 08:58:25;;;;;;;10.35;8.02;;;0.80;99.90;;;;;;7371452;19;20485;-51
2022/11/19 09:00:51;;;;;;;9.13;7.10;;;0.70;99.90;;;;;;7372028;19;20590;-50
2022/11/19 09:03:18;;;;;;;10.43;7.78;;;0.70;99.90;;;;;;7373430;19;20645;-49
2022/11/19 09:05:44;;;;;;;12.07;8.82;;;0.50;99.90;;;;;;7368797;19;20501;-50
2022/11/19 09:08:11;;;;;;;8.90;7.95;;;0.40;99.90;;;;;;7374971;19;20018;-52
2022/11/19 09:10:37;;;;;;;12.15;9.60;;;0.40;99.90;;;;;;7371181;19;20026;-51
2022/11/19 09:13:04;;;;;;;13.52;10.00;;;0.70;99.90;;;;;;7378590;19;20018;-49
2022/11/19 09:15:31;;;;;;;10.32;7.57;;;0.90;99.90;;;;;;7375275;19;20110;-49
2022/11/19 09:17:58;;;;;;;9.15;6.47;;;1.60;99.90;;;;;;7378872;19;20078;-51
2022/11/19 09:20:24;;;;;;;14.80;10.77;;;2.40;99.90;;;;;;7379287;19;20883;-50
2022/11/19 09:22:56;;;;;;;9.65;7.30;;;3.10;99.90;;;;;;7376370;19;20730;-52
2022/11/19 09:25:22;;;;;;;9.07;7.70;;;3.50;99.90;;;;;;7376070;19;20017;-52
2022/11/19 09:27:48;;;;;;;8.15;6.78;;;3.40;99.90;;;;;;7375469;19;20090;-50
2022/11/19 09:30:15;;;;;;;8.60;6.63;;;4.10;99.90;;;;;;7378931;19;20031;-48
2022/11/19 09:32:42;;;;;;;8.23;6.53;;;4.80;99.90;;;;;;7372531;19;20534;-53
2022/11/19 09:35:08;;;;;;;8.80;6.90;;;4.90;99.90;;;;;;7377475;19;20120;-51
2022/11/19 09:37:35;;;;;;;14.48;10.73;;;5.50;99.90;;;;;;7361875;19;20021;-48
2022/11/19 09:40:03;;;;;;;9.38;8.30;;;5.90;99.90;;;;;;7368870;19;20716;-47
2022/11/19 09:43:00;;;;;;;8.23;7.15;;;6.40;99.90;;;;;;7374015;19;20385;-50
2022/11/19 09:45:45;;;;;;;8.68;6.35;;;6.50;99.90;;;;;;7376223;19;20074;-47
2022/11/19 09:48:32;;;;;;;8.15;6.75;;;6.40;99.90;;;;;;7370252;19;20035;-48
2022/11/19 09:51:06;;;;;;;8.00;5.85;;;6.20;99.90;;;;;;7375179;19;20026;-48
2022/11/19 09:53:53;;;;;;;8.20;6.90;;;6.00;99.90;;;;;;7369322;19;20018;-49
2022/11/19 09:56:37;;;;;;;11.50;10.10;;;5.30;99.90;;;;;;7366033;19;20034;-48
2022/11/19 09:59:32;;;;;;;7.95;6.75;;;5.00;99.90;;;;;;7366871;19;20015;-50
2022/11/19 10:01:59;;;;;;;7.90;6.00;;;4.40;99.90;;;;;;7367884;19;20604;-46
2022/11/19 10:04:29;;;;;;;8.77;7.75;;;4.00;99.90;;;;;;7368565;19;20026;-46
2022/11/19 10:07:23;;;;;;;9.90;7.75;;;3.70;99.90;;;;;;7370630;19;20011;-49
2022/11/19 10:10:23;;;;;;;9.25;7.63;;;4.10;99.90;;;;;;7373059;19;20010;-46
2022/11/19 10:12:56;;;;;;;10.57;7.05;;;4.70;99.90;;;;;;7368708;19;20018;-50
2022/11/19 10:15:30;;;;;;;7.30;5.85;;;5.30;99.90;;;;;;7374874;19;20046;-50
2022/11/19 10:18:07;;;;;;;9.63;6.78;;;6.00;99.90;;;;;;7368672;19;20022;-47
2022/11/19 10:20:44;;;;;;;7.03;5.20;;;6.50;99.90;;;;;;7370466;19;20046;-50
2022/11/19 10:23:36;;;;;;;8.43;7.53;;;6.90;99.90;;;;;;7371021;19;20029;-46
2022/11/19 10:26:07;;;;;;;7.55;6.55;;;6.90;96.70;;;;;;7369760;19;20453;-49
2022/11/19 10:28:38;;;;;;;;;;;6.30;99.90;;;;;;7369317;19;20022;-48
2022/11/19 10:31:16;;;;;;;7.82;7.00;;;5.90;97.00;;;;;;7369658;19;20622;-50
2022/11/19 10:34:08;;;;;;;9.60;7.32;;;6.00;99.90;;;;;;7371955;19;20571;-51
2022/11/19 10:36:44;;;;;;;8.35;6.88;;;5.70;99.90;;;;;;7370089;19;20017;-50
2022/11/19 10:39:20;;;;;;;8.40;6.95;;;6.00;99.90;;;;;;7369521;19;20014;-49
2022/11/19 10:42:08;;;;;;;8.05;6.30;;;6.20;99.90;;;;;;7366418;19;20033;-49
2022/11/19 10:44:48;;;;;;;7.28;5.53;;;7.20;99.90;;;;;;7361191;19;20383;-50
2022/11/19 10:47:25;;;;;;;7.38;6.13;;;8.00;96.90;;;;;;7366920;19;20058;-50
2022/11/19 10:49:53;;;;;;;7.30;6.53;;;8.20;95.60;;;;;;7369652;19;20457;-49
2022/11/19 10:52:28;;;;;;;7.93;6.57;;;8.60;91.00;;;;;;7368339;19;20011;-48
2022/11/19 10:55:01;;;;;;;7.78;6.35;;;9.20;93.70;;;;;;7372492;19;20094;-50
2022/11/19 10:57:31;;;;;;;8.93;6.93;;;9.10;90.30;;;;;;7363690;19;20046;-49
2022/11/19 11:00:00;;;;;;;7.43;6.13;;;9.20;85.00;;;;;;7369594;19;20026;-50
2022/11/19 11:02:39;;;;;;;7.32;6.22;;;9.10;81.90;;;;;;7367079;19;20014;-49
2022/11/19 11:05:13;;;;;;;6.90;5.72;;;9.00;77.30;;;;;;7371427;19;20472;-50
2022/11/19 11:07:48;;;;;;;6.88;5.80;;;9.10;80.00;;;;;;7367992;19;20423;-48
2022/11/19 11:10:29;;;;;;;6.47;5.15;;;8.20;88.30;;;;;;7369611;19;20021;-49
2022/11/19 11:15:51;;;;;;;8.25;6.32;;;8.90;81.20;;;;;;7364357;19;20019;-48
2022/11/19 11:18:23;;;;;;;6.47;5.55;;;8.70;79.00;;;;;;7367286;19;20128;-49
2022/11/19 11:20:51;;;;;;;5.80;5.20;;;9.30;82.80;;;;;;7368776;19;20019;-49
2022/11/19 11:23:21;;;;;;;6.55;5.47;;;9.20;82.80;;;;;;7369002;19;20022;-51
2022/11/19 11:26:09;;;;;;;7.18;5.65;;;9.30;76.70;;;;;;7366833;19;20039;-50
2022/11/19 11:29:01;;;;;;;9.15;8.18;;;9.60;74.10;;;;;;7369475;19;20094;-50
2022/11/19 11:31:36;;;;;;;10.90;8.52;;;9.40;74.30;;;;;;7368250;19;20022;-49
2022/11/19 11:34:05;;;;;;;6.63;5.43;;;9.60;73.20;;;;;;7369882;19;20086;-48
2022/11/19 11:36:35;;;;;;;6.68;5.60;;;9.60;70.30;;;;;;7367544;19;20026;-47
2022/11/19 11:39:04;;;;;;;8.70;6.78;;;9.70;72.20;;;;;;7363675;19;20022;-51
2022/11/19 11:41:37;;;;;;;6.75;5.10;;;9.80;71.70;;;;;;7370205;19;20018;-51
2022/11/19 11:44:32;;;;;;;7.90;6.10;;;9.70;68.80;;;;;;7369316;19;20362;-50
2022/11/19 11:47:10;;;;;;;5.50;4.72;;;10.70;68.10;;;;;;7370579;19;20022;-51
2022/11/19 11:49:45;;;;;;;6.75;5.35;;;10.40;65.10;;;;;;7366039;19;20054;-50
2022/11/19 11:52:19;;;;;;;8.50;6.65;;;10.90;72.90;;;;;;7368096;19;20007;-53
2022/11/19 11:54:55;;;;;;;8.50;6.95;;;10.80;64.50;;;;;;7363634;19;20022;-48
2022/11/19 11:58:01;;;;;;;12.50;10.30;;;11.40;63.10;;;;;;7371217;19;20049;-50
2022/11/19 12:00:37;;;;;;;9.48;6.57;;;11.70;64.70;;;;;;7370666;19;20056;-51
2022/11/19 12:03:05;;;;;;;6.00;4.63;;;11.70;61.90;;;;;;7369910;19;20022;-49
2022/11/19 12:06:02;;;;;;;7.60;5.28;;;11.50;66.00;;;;;;7368619;19;20139;-51
2022/11/19 12:09:06;;;;;;;6.32;4.95;;;11.60;63.70;;;;;;7367871;19;20086;-49
2022/11/19 12:11:56;;;;;;;6.22;5.00;;;11.50;61.00;;;;;;7368650;19;20422;-48
2022/11/19 12:14:35;;;;;;;5.93;4.70;;;12.00;61.70;;;;;;7372762;19;20478;-51
2022/11/19 12:17:26;;;;;;;5.72;4.68;;;11.70;63.60;;;;;;7374444;19;20682;-50
2022/11/19 12:20:30;;;;;;;6.00;4.82;;;12.20;63.40;;;;;;7371922;19;20018;-48
2022/11/19 12:22:59;;;;;;;8.27;7.32;;;12.50;59.90;;;;;;7372358;19;20035;-51
2022/11/19 12:25:38;;;;;;;7.30;5.55;;;11.90;62.50;;;;;;7371224;19;20086;-47
2022/11/19 12:28:26;;;;;;;5.60;4.93;;;11.90;61.90;;;;;;7372450;19;20022;-51
2022/11/19 12:31:16;;;;;;;7.03;6.20;;;11.80;60.90;;;;;;7366694;19;20019;-49
2022/11/19 12:34:17;;;;;;;7.15;5.80;;;11.40;61.10;;;;;;7371592;19;20019;-51
2022/11/19 12:37:14;;;;;;;7.55;5.43;;;12.10;61.40;;;;;;7377484;19;20014;-47
2022/11/19 12:39:52;;;;;;;6.35;5.68;;;12.00;63.70;;;;;;7374468;19;20024;-52
2022/11/19 12:42:49;;;;;;;7.85;5.93;;;12.80;64.10;;;;;;7372320;19;20029;-48
2022/11/19 12:45:35;;;;;;;7.47;5.78;;;12.80;62.70;;;;;;7371387;19;20506;-49
2022/11/19 12:48:31;;;;;;;5.68;5.07;;;12.40;64.10;;;;;;7376721;19;20022;-52
2022/11/19 12:51:06;;;;;;;5.57;4.85;;;12.30;64.20;;;;;;7381309;19;20022;-48
2022/11/19 12:53:35;;;;;;;6.72;4.65;;;12.50;63.40;;;;;;7379892;19;20042;-47
2022/11/19 12:56:23;;;;;;;7.25;4.93;;;12.60;62.40;;;;;;7377058;19;20019;-47
2022/11/19 12:59:11;;;;;;;5.47;4.43;;;12.50;58.20;;;;;;7377403;19;20393;-49
2022/11/19 13:01:49;;;;;;;5.10;4.30;;;12.30;59.70;;;;;;7379695;19;20026;-48
2022/11/19 13:04:25;;;;;;;6.55;5.13;;;12.30;63.50;;;;;;7377845;19;20047;-46
2022/11/19 13:07:14;;;;;;;4.90;4.18;;;12.50;62.90;;;;;;7379352;19;20045;-50
2022/11/19 13:09:49;;;;;;;4.90;4.13;;;13.40;62.70;;;;;;7380576;19;20615;-50
2022/11/19 13:12:29;;;;;;;6.20;4.53;;;12.70;62.00;;;;;;7376887;19;20054;-51
2022/11/19 13:15:01;;;;;;;5.35;4.50;;;13.10;61.00;;;;;;7378628;19;20022;-50
2022/11/19 13:17:43;;;;;;;5.38;4.22;;;12.70;62.20;;;;;;7380099;19;20082;-51
2022/11/19 13:20:42;;;;;;;7.55;5.57;;;12.70;62.00;;;;;;7375413;19;20402;-49
2022/11/19 13:23:20;;;;;;;6.97;5.15;;;12.00;59.60;;;;;;7373654;19;20014;-50
2022/11/19 13:26:22;;;;;;;8.13;6.03;;;12.60;61.50;;;;;;7375065;19;20018;-50
2022/11/19 13:29:01;;;;;;;15.63;12.20;;;12.40;59.60;;;;;;7378528;19;20374;-50
2022/11/19 13:31:45;;;;;;;5.45;4.68;;;12.60;62.10;;;;;;7374593;19;20740;-47
2022/11/19 13:34:21;;;;;;;6.80;5.22;;;12.50;61.10;;;;;;7377064;19;20022;-48
2022/11/19 13:37:00;;;;;;;32.33;24.50;;;12.60;60.20;;;;;;7374736;19;20042;-52
2022/11/19 13:39:38;;;;;;;23.80;18.85;;;12.80;62.40;;;;;;7377698;19;20022;-50